X  Close Metar Aviation Weather Data     EHRD Rotterdam The Hague Airport
Temperature
16°C Temperature
11°C Dewpoint
72% Humidity



Wind
23 KM/H
14 MPH
6 M/S
12 KTS



250°
WSW
Current Conditions

Partly Cloudy Partly Cloudy
Pressure 1019.92 (hPa) - 30.12 (inHg)
Visibility 6.2 (mile) - 10 (km)
Airport
Airport-code EHRD

Location: Rotterdam The Hague Airport
Distance: 16 (km)

Metar:
EHRD 260825Z AUTO 25012KT 220V290 9999 FEW019 SCT026 BKN035 16/11 Q1020 NOSIG

Time: 26-05-2022 10:25 CEST